KISM

Kissimmee Gateway Airport

Orlando, Florida, USA
KISM 261128Z 2612/2712 23004KT P6SM SCT250 FM261500 25008KT P6SM SCT040 BKN250 FM270000 26005KT P6SM SKC
Issued Valid From Valid To
Apr-26 @ 11:28 UTC
(2 hours ago)
Apr-26 @ 12:00 UTC
(an hour ago)
Apr-27 @ 12:00 UTC
(in 23 hours)
Apr-26 @ 12:00 to Apr-26 @ 15:00
KISM 261128Z 2612/2712 23004KT P6SM SCT250
Wind Visibility Clouds
230° at 4 knots Greater than 6 miles
  • Scattered at 25,000' AGL
From Apr-26 @ 15:00 to Apr-27 @ 00:00
FM261500 25008KT P6SM SCT040 BKN250
Wind Visibility Clouds
250° at 8 knots Greater than 6 miles
  • Scattered at 4,000' AGL
  • Broken at 25,000' AGL
From Apr-27 @ 00:00 to Apr-27 @ 12:00
FM270000 26005KT P6SM SKC
Wind Visibility Clouds
260° at 5 knots Greater than 6 miles
  • Clear skies
KISM 261128Z 2612/2712 23004KT P6SM SCT250 FM261500 25008KT P6SM SCT040 BKN250 FM270000 26005KT P6SM SKC
Issued Apr-26 @ 11:28 UTC
(2 hours ago)
Valid From Apr-26 @ 12:00 UTC
(an hour ago)
Valid To Apr-27 @ 12:00 UTC
(in 23 hours)
Apr-26 @ 12:00 - Apr-26 @ 15:00
Wind Visibility
230° at 4 knots Greater than 6 miles
Clouds
  • Scattered at 25,000' AGL
From Apr-26 @ 15:00 - Apr-27 @ 00:00
Wind Visibility
250° at 8 knots Greater than 6 miles
Clouds
  • Scattered at 4,000' AGL
  • Broken at 25,000' AGL
From Apr-27 @ 00:00 - Apr-27 @ 12:00
Wind Visibility
260° at 5 knots Greater than 6 miles
Clouds
  • Clear skies